This is the latest recevied weather packets stored in our database for station/object WA6GRA. If no packets are shown the sender has not sent any weather packets the latest 1 day(s).
| Time | Temp. | Humidity | Pressure | Rain* | Wind** | Luminosity | Snow |
|---|---|---|---|---|---|---|---|
| 1836274377 | 23.33° C | 83% | 1012.8 hPa | 0 mm | 0 m/s | 0 W/m² | - |
| 1836274230 | 23.33° C | 84% | 1012.8 hPa | 0 mm | 0 m/s | 0 W/m² | - |
| 1778043799 | 15° C | 75% | 1016.4 hPa | 0 mm | 0.89 m/s, 353° | 0 W/m² | - |
| 1778043198 | 15° C | 73% | 1016.1 hPa | 0 mm | 0.45 m/s, 353° | 0 W/m² | - |
| 1778042593 | 15.56° C | 70% | 1016.1 hPa | 0 mm | 0 m/s | 0 W/m² | - |
| 1778041993 | 16.11° C | 68% | 1015.8 hPa | 0 mm | 0.45 m/s, 337° | 0 W/m² | - |
| 1778041390 | 16.11° C | 66% | 1015.7 hPa | 0 mm | 0 m/s | 0 W/m² | - |
| 1778040791 | 16.67° C | 65% | 1015.6 hPa | 0 mm | 0.45 m/s, 332° | 0 W/m² | - |
| 1778040185 | 16.67° C | 64% | 1015.4 hPa | 0 mm | 0.89 m/s, 332° | 0 W/m² | - |
| 1778039585 | 16.67° C | 64% | 1015.4 hPa | 0 mm | 0.45 m/s, 324° | 0 W/m² | - |
| 1778038979 | 17.22° C | 63% | 1015.4 hPa | 0 mm | 1.34 m/s, 306° | 0 W/m² | - |
| 1778038379 | 17.22° C | 62% | 1015.3 hPa | 0 mm | 0.89 m/s, 325° | 0 W/m² | - |
| 1778037778 | 17.78° C | 60% | 1015.2 hPa | 0 mm | 1.34 m/s, 336° | 0 W/m² | - |
| 1778037178 | 17.78° C | 60% | 1015.1 hPa | 0 mm | 1.34 m/s, 325° | 0 W/m² | - |
| 1778036574 | 18.33° C | 58% | 1014.9 hPa | 0 mm | 1.34 m/s, 335° | 1 W/m² | - |
| 1778035973 | 18.89° C | 57% | 1014.7 hPa | 0 mm | 1.79 m/s, 349° | 2 W/m² | - |
| 1778035372 | 18.89° C | 56% | 1014.7 hPa | 0 mm | 1.34 m/s, 334° | 5 W/m² | - |
| 1778034771 | 18.89° C | 55% | 1014.6 hPa | 0 mm | 0.89 m/s, 353° | 10 W/m² | - |
| 1778034166 | 19.44° C | 54% | 1014.3 hPa | 0 mm | 1.79 m/s, 343° | 16 W/m² | - |
| 1778033566 | 20° C | 52% | 1014.4 hPa | 0 mm | 0.89 m/s, 309° | 23 W/m² | - |
| 1778032966 | 20° C | 51% | 1014.3 hPa | 0 mm | 1.34 m/s, 342° | 41 W/m² | - |
| 1778032373 | 19.44° C | 52% | 1014.2 hPa | 0 mm | 0.89 m/s, 336° | 40 W/m² | - |
| 1778031766 | 19.44° C | 51% | 1014.4 hPa | 0 mm | 1.79 m/s, 346° | 46 W/m² | - |
| 1778031166 | 19.44° C | 51% | 1014.1 hPa | 0 mm | 1.34 m/s, 338° | 52 W/m² | - |
| 1778030564 | 19.44° C | 51% | 1014 hPa | 0 mm | 1.34 m/s, 334° | 58 W/m² | - |
* Rain latest hour (hover to see other rain measurements)
** Current wind speed in m/s (hover to see current wind gust speed)